Time;durP1;ratioP1;P1;durP2;ratioP2;P2;SDS_P1;SDS_P2;PMS_P1;PMS_P2;Temp;Humidity;BMP_temperature;BMP_pressure;BME280_temperature;BME280_humidity;BME280_pressure;Samples;Min_cycle;Max_cycle;Signal;HPM_P1;HPM_P2
2023/05/06 00:01:51;;;;;;;16.77;8.63;;;;;;;;;;5099354;27;20051;-63
2023/05/06 00:04:22;;;;;;;20.02;10.65;;;;;;;;;;5098580;27;20039;-63
2023/05/06 00:06:53;;;;;;;20.23;10.93;;;;;;;;;;5098746;27;20059;-64
2023/05/06 00:09:23;;;;;;;22.23;11.38;;;;;;;;;;5134752;27;20031;-63
2023/05/06 00:11:55;;;;;;;19.70;10.15;;;;;;;;;;5034695;27;20052;-64
2023/05/06 00:14:25;;;;;;;12.90;6.55;;;;;;;;;;5099362;27;20062;-64
2023/05/06 00:16:56;;;;;;;11.18;5.43;;;;;;;;;;5134873;27;20043;-64
2023/05/06 00:19:26;;;;;;;10.73;5.13;;;;;;;;;;5134872;27;20043;-63
2023/05/06 00:21:56;;;;;;;7.05;4.57;;;;;;;;;;5134737;27;20478;-64
2023/05/06 00:24:26;;;;;;;11.27;4.47;;;;;;;;;;5090999;28;20055;-63
2023/05/06 00:26:57;;;;;;;11.40;5.00;;;;;;;;;;5091141;28;20064;-63
2023/05/06 00:29:27;;;;;;;8.95;5.38;;;;;;;;;;5074755;28;20373;-63
2023/05/06 00:31:58;;;;;;;8.02;4.45;;;;;;;;;;5079424;28;20076;-64
2023/05/06 00:34:29;;;;;;;11.05;4.88;;;;;;;;;;5050304;28;20044;-63
2023/05/06 00:36:59;;;;;;;11.68;4.75;;;;;;;;;;5050191;28;20176;-64
2023/05/06 00:39:30;;;;;;;12.98;4.78;;;;;;;;;;5000991;28;20068;-63
2023/05/06 00:42:01;;;;;;;10.20;4.55;;;;;;;;;;5010616;28;20534;-64
2023/05/06 00:44:31;;;;;;;8.98;4.80;;;;;;;;;;4952229;29;20047;-63
2023/05/06 00:47:01;;;;;;;8.63;4.57;;;;;;;;;;4952481;29;20078;-64
2023/05/06 00:49:32;;;;;;;14.13;5.88;;;;;;;;;;4952048;29;20093;-64
2023/05/06 00:52:03;;;;;;;12.10;4.82;;;;;;;;;;4936617;29;20063;-64
2023/05/06 00:54:33;;;;;;;10.45;4.45;;;;;;;;;;4921181;29;20063;-64
2023/05/06 00:57:03;;;;;;;9.80;4.80;;;;;;;;;;4936101;29;20055;-64
2023/05/06 00:59:34;;;;;;;7.35;4.35;;;;;;;;;;4952409;29;20067;-64
2023/05/06 01:02:04;;;;;;;8.45;4.57;;;;;;;;;;4943400;29;20075;-65
2023/05/06 01:04:34;;;;;;;8.52;4.38;;;;;;;;;;4913783;29;20524;-64
2023/05/06 01:07:23;;;;;;;8.20;4.53;;;;;;;;;;4913301;29;20075;-64
2023/05/06 01:10:03;;;;;;;9.48;4.45;;;;;;;;;;4883076;29;20060;-64
2023/05/06 01:13:14;;;;;;;8.52;4.28;;;;;;;;;;4914561;29;20071;-64
2023/05/06 01:15:53;;;;;;;7.90;4.03;;;;;;;;;;4932476;29;20055;-64
2023/05/06 01:18:27;;;;;;;11.18;4.28;;;;;;;;;;4917092;29;20056;-64
2023/05/06 01:20:58;;;;;;;7.63;4.07;;;;;;;;;;4917295;29;20070;-64
2023/05/06 01:23:28;;;;;;;10.95;4.53;;;;;;;;;;4951651;29;20055;-64
2023/05/06 01:25:58;;;;;;;7.75;4.22;;;;;;;;;;4948980;29;20067;-64
2023/05/06 01:28:28;;;;;;;13.73;4.13;;;;;;;;;;4944131;28;20569;-64
2023/05/06 01:31:04;;;;;;;9.35;4.35;;;;;;;;;;4885114;29;20456;-65
2023/05/06 01:33:37;;;;;;;9.60;4.18;;;;;;;;;;4903138;28;20067;-64
2023/05/06 01:36:18;;;;;;;8.10;4.28;;;;;;;;;;4941270;29;20048;-64
2023/05/06 01:39:06;;;;;;;11.75;4.68;;;;;;;;;;4937175;29;20079;-65
2023/05/06 01:41:40;;;;;;;13.13;5.03;;;;;;;;;;4927892;29;20059;-64
2023/05/06 01:44:11;;;;;;;8.35;4.22;;;;;;;;;;4927291;29;20423;-64
2023/05/06 01:46:44;;;;;;;10.18;4.22;;;;;;;;;;4942307;28;20537;-64
2023/05/06 01:49:15;;;;;;;8.43;4.25;;;;;;;;;;4955419;28;20062;-64
2023/05/06 01:51:50;;;;;;;10.68;4.65;;;;;;;;;;4997716;28;20057;-64
2023/05/06 01:54:20;;;;;;;8.77;4.03;;;;;;;;;;5036313;28;20069;-64
2023/05/06 01:56:50;;;;;;;10.68;3.90;;;;;;;;;;5048893;28;20064;-64
2023/05/06 01:59:20;;;;;;;10.43;4.35;;;;;;;;;;5028898;28;20560;-64
2023/05/06 02:01:50;;;;;;;9.27;3.70;;;;;;;;;;4970022;28;20415;-64
2023/05/06 02:04:20;;;;;;;8.73;4.10;;;;;;;;;;4950738;28;20047;-64
2023/05/06 02:06:51;;;;;;;8.55;4.00;;;;;;;;;;4969926;28;20066;-64
2023/05/06 02:09:21;;;;;;;11.27;4.35;;;;;;;;;;4950444;28;20055;-64
2023/05/06 02:11:56;;;;;;;9.20;3.83;;;;;;;;;;4912458;29;20052;-64
2023/05/06 02:14:27;;;;;;;12.27;4.18;;;;;;;;;;4912963;29;20064;-64
2023/05/06 02:17:03;;;;;;;7.30;3.97;;;;;;;;;;4909602;29;20072;-64
2023/05/06 02:19:34;;;;;;;9.95;4.30;;;;;;;;;;4877984;29;20052;-64
2023/05/06 02:22:04;;;;;;;8.70;4.80;;;;;;;;;;4893373;29;20485;-64
2023/05/06 02:24:34;;;;;;;9.07;4.38;;;;;;;;;;4877559;29;20052;-63
2023/05/06 02:27:05;;;;;;;7.82;4.05;;;;;;;;;;4893742;29;20052;-64
2023/05/06 02:29:35;;;;;;;8.95;4.47;;;;;;;;;;4908812;29;20072;-64
2023/05/06 02:32:05;;;;;;;7.38;4.25;;;;;;;;;;4907412;29;20412;-64
2023/05/06 02:34:35;;;;;;;9.32;5.10;;;;;;;;;;4912097;29;20110;-64
2023/05/06 02:37:06;;;;;;;10.77;4.43;;;;;;;;;;4911619;29;20055;-64
2023/05/06 02:39:36;;;;;;;11.70;4.40;;;;;;;;;;4912347;29;20063;-64
2023/05/06 02:42:06;;;;;;;9.40;3.95;;;;;;;;;;4922193;29;20550;-64
2023/05/06 02:44:36;;;;;;;12.60;4.45;;;;;;;;;;4951398;28;20182;-64
2023/05/06 02:47:06;;;;;;;10.25;4.63;;;;;;;;;;4970015;28;20166;-64
2023/05/06 02:49:36;;;;;;;10.75;4.30;;;;;;;;;;4970035;28;20395;-63
2023/05/06 02:52:06;;;;;;;10.20;4.30;;;;;;;;;;4969618;28;20066;-65
2023/05/06 02:54:36;;;;;;;10.98;4.80;;;;;;;;;;4975706;28;20041;-64
2023/05/06 02:57:07;;;;;;;10.52;4.97;;;;;;;;;;4985256;28;20503;-64
2023/05/06 02:59:37;;;;;;;11.32;4.72;;;;;;;;;;4978186;28;20061;-63
2023/05/06 03:02:08;;;;;;;7.78;4.85;;;;;;;;;;4976036;28;20081;-64
2023/05/06 03:04:38;;;;;;;12.68;4.72;;;;;;;;;;4969310;28;20058;-64
2023/05/06 03:07:08;;;;;;;14.23;4.97;;;;;;;;;;4969177;28;20053;-64
2023/05/06 03:09:38;;;;;;;11.70;6.00;;;;;;;;;;4969265;28;20054;-64
2023/05/06 03:12:10;;;;;;;12.35;4.38;;;;;;;;;;4988517;28;20055;-64
2023/05/06 03:14:40;;;;;;;7.50;4.25;;;;;;;;;;4972179;28;20069;-64
2023/05/06 03:17:11;;;;;;;11.20;4.40;;;;;;;;;;4988256;28;21160;-64
2023/05/06 03:19:41;;;;;;;7.28;4.40;;;;;;;;;;4972474;28;20058;-64
2023/05/06 03:22:13;;;;;;;10.85;4.65;;;;;;;;;;4952911;28;20051;-64
2023/05/06 03:24:45;;;;;;;11.10;4.22;;;;;;;;;;4968840;28;20691;-64
2023/05/06 03:27:15;;;;;;;10.65;5.45;;;;;;;;;;4936830;28;20388;-65
2023/05/06 03:29:48;;;;;;;10.90;4.53;;;;;;;;;;4956003;28;20059;-64
2023/05/06 03:32:20;;;;;;;9.48;4.68;;;;;;;;;;4924450;29;20508;-64
2023/05/06 03:34:51;;;;;;;9.93;4.55;;;;;;;;;;4946942;28;20052;-64
2023/05/06 03:37:22;;;;;;;9.98;5.07;;;;;;;;;;4991910;28;20054;-63
2023/05/06 03:39:55;;;;;;;15.90;4.82;;;;;;;;;;5011728;28;20050;-64
2023/05/06 03:42:27;;;;;;;7.65;4.43;;;;;;;;;;4956173;28;20070;-64
2023/05/06 03:44:58;;;;;;;6.97;4.03;;;;;;;;;;4991901;28;20058;-63
2023/05/06 03:47:31;;;;;;;13.57;4.70;;;;;;;;;;4999836;28;20070;-64
2023/05/06 03:50:03;;;;;;;10.55;4.53;;;;;;;;;;4972473;28;20077;-64
2023/05/06 03:52:35;;;;;;;9.40;4.68;;;;;;;;;;4921178;29;20044;-64
2023/05/06 03:55:06;;;;;;;12.77;5.07;;;;;;;;;;4912223;29;20547;-63
2023/05/06 03:57:38;;;;;;;9.60;4.47;;;;;;;;;;4895923;29;20053;-64
2023/05/06 04:00:09;;;;;;;11.13;4.50;;;;;;;;;;4896139;29;20060;-64
2023/05/06 04:02:43;;;;;;;8.45;4.40;;;;;;;;;;4857726;29;20050;-64
2023/05/06 04:05:21;;;;;;;14.63;4.40;;;;;;;;;;4877241;29;20057;-63
2023/05/06 04:07:51;;;;;;;8.20;4.93;;;;;;;;;;4885298;29;20049;-64
2023/05/06 04:10:21;;;;;;;10.32;4.47;;;;;;;;;;4846594;29;20643;-64
2023/05/06 04:12:54;;;;;;;11.60;5.22;;;;;;;;;;4864656;29;20385;-64
2023/05/06 04:15:33;;;;;;;8.52;4.40;;;;;;;;;;4895960;29;20052;-64
2023/05/06 04:18:07;;;;;;;12.40;4.80;;;;;;;;;;4930123;29;20052;-64
2023/05/06 04:20:40;;;;;;;9.90;5.32;;;;;;;;;;4925335;29;20059;-64
2023/05/06 04:23:10;;;;;;;10.20;5.45;;;;;;;;;;4895511;29;20056;-64
2023/05/06 04:25:41;;;;;;;11.77;6.47;;;;;;;;;;4901468;29;20134;-64
2023/05/06 04:28:11;;;;;;;10.05;5.45;;;;;;;;;;4914405;29;20044;-64
2023/05/06 04:30:45;;;;;;;11.50;5.20;;;;;;;;;;4898499;29;20063;-64
2023/05/06 04:33:15;;;;;;;7.90;5.20;;;;;;;;;;4940681;28;20108;-64
2023/05/06 04:35:52;;;;;;;7.45;4.47;;;;;;;;;;4965253;28;20047;-64
2023/05/06 04:38:29;;;;;;;11.13;4.85;;;;;;;;;;4971703;28;20053;-63
2023/05/06 04:41:00;;;;;;;10.52;4.35;;;;;;;;;;4952354;28;20059;-63
2023/05/06 04:43:31;;;;;;;6.93;4.35;;;;;;;;;;4905391;28;20420;-64
2023/05/06 04:46:09;;;;;;;10.63;4.35;;;;;;;;;;4937396;28;20060;-64
2023/05/06 04:48:41;;;;;;;7.55;4.18;;;;;;;;;;4901878;29;20056;-64
2023/05/06 04:51:14;;;;;;;8.40;4.13;;;;;;;;;;4951964;28;20051;-63
2023/05/06 04:53:44;;;;;;;9.93;4.82;;;;;;;;;;4920990;28;20049;-64
2023/05/06 04:56:15;;;;;;;7.78;4.57;;;;;;;;;;4914754;29;20059;-64
2023/05/06 04:58:47;;;;;;;8.50;4.32;;;;;;;;;;4913883;29;20137;-63
2023/05/06 05:01:18;;;;;;;15.07;5.55;;;;;;;;;;4894851;29;20048;-63
2023/05/06 05:03:48;;;;;;;9.90;5.60;;;;;;;;;;4932684;29;20091;-64
2023/05/06 05:06:20;;;;;;;10.85;5.60;;;;;;;;;;4900213;29;20052;-64
2023/05/06 05:08:51;;;;;;;7.85;4.80;;;;;;;;;;4894609;29;20056;-64
2023/05/06 05:11:24;;;;;;;9.27;5.63;;;;;;;;;;4900554;29;20201;-64
2023/05/06 05:13:56;;;;;;;10.43;5.20;;;;;;;;;;4862964;29;20057;-64
2023/05/06 05:16:31;;;;;;;8.82;4.65;;;;;;;;;;4844687;29;20062;-64
2023/05/06 05:19:03;;;;;;;12.57;5.13;;;;;;;;;;4838984;29;20053;-64
2023/05/06 05:21:38;;;;;;;15.90;4.78;;;;;;;;;;4857228;29;20077;-64
2023/05/06 05:24:10;;;;;;;15.55;4.82;;;;;;;;;;4864128;29;20053;-63
2023/05/06 05:26:40;;;;;;;10.38;5.30;;;;;;;;;;4863719;29;20422;-64
2023/05/06 05:29:11;;;;;;;8.68;4.65;;;;;;;;;;4864658;29;20060;-64
2023/05/06 05:31:41;;;;;;;10.27;5.00;;;;;;;;;;4856067;29;20057;-64
2023/05/06 05:34:12;;;;;;;8.80;4.57;;;;;;;;;;4894071;29;20067;-63
2023/05/06 05:36:43;;;;;;;11.18;4.93;;;;;;;;;;4825683;29;20054;-64
2023/05/06 05:39:14;;;;;;;11.13;4.47;;;;;;;;;;4857362;29;20057;-63
2023/05/06 05:41:46;;;;;;;9.80;4.93;;;;;;;;;;4816279;29;20065;-64
2023/05/06 05:44:17;;;;;;;10.07;4.25;;;;;;;;;;4842728;29;20062;-64
2023/05/06 05:46:49;;;;;;;15.18;4.90;;;;;;;;;;4790854;29;20554;-64
2023/05/06 05:49:21;;;;;;;9.88;5.43;;;;;;;;;;4783901;29;20105;-63
2023/05/06 05:51:53;;;;;;;12.95;5.68;;;;;;;;;;4813655;29;20074;-64
2023/05/06 05:54:23;;;;;;;12.38;5.13;;;;;;;;;;4838462;29;20495;-63
2023/05/06 05:56:53;;;;;;;11.82;4.57;;;;;;;;;;4821614;29;20057;-63
2023/05/06 05:59:25;;;;;;;8.73;4.47;;;;;;;;;;4813417;29;20065;-63
2023/05/06 06:01:59;;;;;;;9.52;4.10;;;;;;;;;;4813176;29;20080;-63
2023/05/06 06:04:29;;;;;;;14.23;5.05;;;;;;;;;;4819954;29;20536;-64
2023/05/06 06:07:00;;;;;;;7.90;4.50;;;;;;;;;;4807798;29;20051;-63
2023/05/06 06:09:34;;;;;;;15.30;4.72;;;;;;;;;;4794993;29;20059;-63
2023/05/06 06:12:05;;;;;;;8.18;3.92;;;;;;;;;;4840379;29;20068;-64
2023/05/06 06:14:39;;;;;;;14.10;4.53;;;;;;;;;;4852166;29;20414;-64
2023/05/06 06:17:10;;;;;;;14.82;4.28;;;;;;;;;;4882616;29;20053;-63
2023/05/06 06:19:40;;;;;;;16.15;4.70;;;;;;;;;;4875033;29;20076;-63
2023/05/06 06:22:10;;;;;;;13.10;4.95;;;;;;;;;;4864108;29;20061;-63
2023/05/06 06:24:40;;;;;;;8.48;4.50;;;;;;;;;;4864236;29;20166;-64
2023/05/06 06:27:11;;;;;;;11.23;5.05;;;;;;;;;;4893144;29;20105;-64
2023/05/06 06:29:41;;;;;;;8.82;4.43;;;;;;;;;;4893780;29;20064;-63
2023/05/06 06:32:11;;;;;;;21.63;4.75;;;;;;;;;;4867490;29;20053;-64
2023/05/06 06:34:41;;;;;;;13.68;4.90;;;;;;;;;;4874585;29;20535;-63
2023/05/06 06:37:11;;;;;;;12.23;4.43;;;;;;;;;;4865301;29;20069;-63
2023/05/06 06:39:41;;;;;;;20.58;5.50;;;;;;;;;;4844126;29;20060;-63
2023/05/06 06:42:11;;;;;;;12.82;5.03;;;;;;;;;;4864904;29;20057;-64
2023/05/06 06:44:49;;;;;;;11.27;5.38;;;;;;;;;;4837805;29;20074;-63
2023/05/06 06:47:20;;;;;;;13.45;5.25;;;;;;;;;;4867494;29;20060;-63
2023/05/06 06:49:50;;;;;;;12.05;4.63;;;;;;;;;;4896413;29;20201;-63
2023/05/06 06:52:20;;;;;;;12.07;4.50;;;;;;;;;;4921586;29;20062;-63
2023/05/06 06:54:50;;;;;;;12.13;4.22;;;;;;;;;;4931031;29;20248;-63
2023/05/06 06:57:20;;;;;;;7.82;4.35;;;;;;;;;;4930750;29;20074;-63
2023/05/06 06:59:52;;;;;;;11.30;3.95;;;;;;;;;;4915511;29;20063;-63
2023/05/06 07:02:22;;;;;;;8.82;4.25;;;;;;;;;;4950190;28;20065;-63
2023/05/06 07:04:53;;;;;;;9.02;4.10;;;;;;;;;;4962284;28;20070;-63
2023/05/06 07:07:23;;;;;;;7.65;4.10;;;;;;;;;;4988764;28;20054;-64
2023/05/06 07:09:53;;;;;;;11.57;4.88;;;;;;;;;;4989143;28;20065;-63
2023/05/06 07:12:25;;;;;;;8.38;4.60;;;;;;;;;;4972523;28;20065;-63
2023/05/06 07:14:55;;;;;;;16.63;4.88;;;;;;;;;;5020127;28;20061;-63
2023/05/06 07:17:25;;;;;;;14.13;5.20;;;;;;;;;;5031386;28;20056;-64
2023/05/06 07:19:55;;;;;;;15.18;4.72;;;;;;;;;;5048109;28;20057;-64
2023/05/06 07:22:25;;;;;;;8.48;4.57;;;;;;;;;;5057328;28;20057;-64
2023/05/06 07:24:55;;;;;;;8.05;4.75;;;;;;;;;;5067916;28;20152;-64
2023/05/06 07:27:26;;;;;;;7.68;4.45;;;;;;;;;;5068353;28;20484;-63
2023/05/06 07:29:56;;;;;;;10.88;4.43;;;;;;;;;;5068105;28;20056;-64
2023/05/06 07:32:26;;;;;;;8.15;5.32;;;;;;;;;;5088693;28;20483;-64
2023/05/06 07:34:56;;;;;;;8.43;4.22;;;;;;;;;;5111120;28;20055;-63
2023/05/06 07:37:26;;;;;;;15.63;5.70;;;;;;;;;;5042999;28;20055;-63
2023/05/06 07:39:57;;;;;;;9.20;4.65;;;;;;;;;;5110948;28;20043;-63
2023/05/06 07:42:27;;;;;;;12.05;4.70;;;;;;;;;;5111213;28;20051;-64
2023/05/06 07:44:57;;;;;;;17.38;4.43;;;;;;;;;;5111051;28;20048;-63
2023/05/06 07:47:30;;;;;;;9.52;4.30;;;;;;;;;;5057945;28;20494;-65
2023/05/06 07:50:00;;;;;;;9.35;4.47;;;;;;;;;;5110946;28;20039;-64
2023/05/06 07:52:30;;;;;;;9.52;4.38;;;;;;;;;;5110742;28;20501;-64
2023/05/06 07:55:00;;;;;;;7.80;4.25;;;;;;;;;;5091518;28;20406;-64
2023/05/06 07:57:30;;;;;;;6.57;4.03;;;;;;;;;;5110979;28;20494;-64
2023/05/06 08:00:00;;;;;;;12.18;4.68;;;;;;;;;;5093670;28;20059;-63
2023/05/06 08:02:42;;;;;;;10.48;4.20;;;;;;;;;;5063479;28;20093;-63
2023/05/06 08:05:13;;;;;;;7.85;4.15;;;;;;;;;;5110731;28;20394;-65
2023/05/06 08:07:44;;;;;;;9.07;3.97;;;;;;;;;;5093078;28;20058;-63
2023/05/06 08:10:14;;;;;;;7.80;3.95;;;;;;;;;;5110633;28;20044;-64
2023/05/06 08:12:44;;;;;;;8.73;4.03;;;;;;;;;;5074433;28;20399;-63
2023/05/06 08:15:15;;;;;;;6.72;4.15;;;;;;;;;;5013276;28;20063;-64
2023/05/06 08:17:46;;;;;;;9.65;4.57;;;;;;;;;;5114587;28;20114;-64
2023/05/06 08:20:16;;;;;;;8.68;4.55;;;;;;;;;;5128156;27;20039;-64
2023/05/06 08:22:47;;;;;;;11.15;4.20;;;;;;;;;;5042110;28;20063;-63
2023/05/06 08:25:17;;;;;;;7.05;3.95;;;;;;;;;;5091293;28;20059;-63
2023/05/06 08:27:47;;;;;;;11.80;4.60;;;;;;;;;;5091550;28;20060;-63
2023/05/06 08:30:17;;;;;;;11.52;4.47;;;;;;;;;;5091403;28;20048;-65
2023/05/06 08:32:49;;;;;;;;;;;;;;;;;;5043219;28;20060;-64
2023/05/06 08:35:19;;;;;;;10.00;3.65;;;;;;;;;;5090955;28;19920;-63
2023/05/06 08:37:49;;;;;;;11.70;4.28;;;;;;;;;;5091233;28;20138;-63
2023/05/06 08:40:22;;;;;;;8.55;4.78;;;;;;;;;;5024487;28;20523;-63
2023/05/06 08:42:54;;;;;;;8.82;4.10;;;;;;;;;;5090951;28;20380;-63
2023/05/06 08:45:25;;;;;;;7.85;4.22;;;;;;;;;;5057153;28;20044;-63
2023/05/06 08:47:57;;;;;;;15.88;4.55;;;;;;;;;;5058483;28;20166;-63
2023/05/06 08:50:27;;;;;;;8.48;4.20;;;;;;;;;;5040854;28;20063;-64
2023/05/06 08:52:57;;;;;;;10.00;4.28;;;;;;;;;;5073912;28;20075;-64
2023/05/06 08:55:28;;;;;;;10.57;4.50;;;;;;;;;;5057094;28;20064;-63
2023/05/06 08:57:59;;;;;;;9.00;4.20;;;;;;;;;;5057552;28;20052;-63
2023/05/06 09:00:29;;;;;;;11.68;4.35;;;;;;;;;;5063262;27;20055;-63
2023/05/06 09:03:00;;;;;;;7.47;3.67;;;;;;;;;;5097786;27;20047;-63
2023/05/06 09:05:31;;;;;;;8.32;4.10;;;;;;;;;;5063725;27;20072;-63
2023/05/06 09:08:02;;;;;;;11.85;4.30;;;;;;;;;;5056520;28;20070;-63
2023/05/06 09:10:37;;;;;;;8.10;3.67;;;;;;;;;;5090322;28;20055;-63
2023/05/06 09:13:12;;;;;;;7.63;3.72;;;;;;;;;;5090647;28;20399;-63
2023/05/06 09:15:46;;;;;;;7.97;3.83;;;;;;;;;;5090142;28;20054;-63
2023/05/06 09:18:17;;;;;;;8.82;3.75;;;;;;;;;;5039917;28;20049;-63
2023/05/06 09:20:48;;;;;;;8.75;4.43;;;;;;;;;;5035921;28;20059;-63
2023/05/06 09:23:19;;;;;;;7.25;4.22;;;;;;;;;;5019954;28;20040;-64
2023/05/06 09:25:50;;;;;;;11.00;4.80;;;;;;;;;;5069360;28;20056;-63
2023/05/06 09:28:19;;;;;;;7.25;4.03;;;;;;;;;;5052998;28;20060;-64
2023/05/06 09:30:50;;;;;;;8.13;4.10;;;;;;;;;;5036871;28;20069;-64
2023/05/06 09:33:21;;;;;;;9.02;4.63;;;;;;;;;;5069757;28;20076;-63
2023/05/06 09:35:51;;;;;;;9.02;3.92;;;;;;;;;;5069348;28;20149;-63
2023/05/06 09:38:21;;;;;;;9.70;4.10;;;;;;;;;;5069469;28;20049;-63
2023/05/06 09:40:51;;;;;;;11.52;4.65;;;;;;;;;;5069635;28;20044;-63
2023/05/06 09:43:23;;;;;;;9.27;3.67;;;;;;;;;;5036587;28;20064;-63
2023/05/06 09:45:53;;;;;;;8.20;4.38;;;;;;;;;;5005775;28;20122;-64
2023/05/06 09:48:31;;;;;;;9.90;3.92;;;;;;;;;;5055790;28;20048;-64
2023/05/06 09:51:01;;;;;;;9.07;4.43;;;;;;;;;;5055920;28;20384;-64
2023/05/06 09:53:34;;;;;;;8.40;4.25;;;;;;;;;;5089378;28;20055;-63
2023/05/06 09:56:08;;;;;;;12.65;4.22;;;;;;;;;;5055943;28;20048;-64
2023/05/06 09:58:38;;;;;;;8.73;4.47;;;;;;;;;;5102583;28;20066;-63
2023/05/06 10:01:12;;;;;;;8.52;4.13;;;;;;;;;;5026427;28;20040;-62
2023/05/06 10:03:52;;;;;;;7.13;3.78;;;;;;;;;;5045377;28;20494;-62
2023/05/06 10:06:22;;;;;;;;;;;;;;;;;;5059695;28;20398;-63
2023/05/06 10:08:53;;;;;;;7.65;3.83;;;;;;;;;;5112040;28;19923;-62
2023/05/06 10:11:25;;;;;;;7.88;3.80;;;;;;;;;;5059514;28;20063;-62
2023/05/06 10:13:55;;;;;;;13.43;3.88;;;;;;;;;;5112058;28;20039;-63
2023/05/06 10:16:26;;;;;;;10.38;4.30;;;;;;;;;;5068394;28;20049;-62
2023/05/06 10:18:59;;;;;;;7.50;3.88;;;;;;;;;;5037640;28;20478;-63
2023/05/06 10:21:33;;;;;;;9.65;4.13;;;;;;;;;;5072687;28;20507;-63
2023/05/06 10:24:07;;;;;;;7.40;4.50;;;;;;;;;;5089102;28;20385;-62
2023/05/06 10:26:40;;;;;;;10.65;3.85;;;;;;;;;;5055966;28;20060;-62
2023/05/06 10:29:10;;;;;;;9.30;4.30;;;;;;;;;;5071680;28;20060;-63
2023/05/06 10:31:48;;;;;;;8.68;4.30;;;;;;;;;;5055352;28;20067;-62
2023/05/06 10:34:21;;;;;;;9.98;4.88;;;;;;;;;;5071415;28;20051;-63
2023/05/06 10:36:56;;;;;;;8.63;4.03;;;;;;;;;;5038258;28;20063;-63
2023/05/06 10:39:26;;;;;;;9.65;4.68;;;;;;;;;;5071654;28;20056;-63
2023/05/06 10:41:56;;;;;;;8.60;4.35;;;;;;;;;;5054909;28;20063;-62
2023/05/06 10:44:57;;;;;;;8.65;4.25;;;;;;;;;;5088481;28;20044;-64
2023/05/06 10:47:27;;;;;;;8.40;4.38;;;;;;;;;;5054824;28;20063;-63
2023/05/06 10:50:20;;;;;;;9.82;4.22;;;;;;;;;;5088433;28;20048;-63
2023/05/06 10:52:54;;;;;;;8.77;4.93;;;;;;;;;;5048108;28;20505;-63
2023/05/06 10:55:32;;;;;;;8.27;4.38;;;;;;;;;;5088289;28;20060;-63
2023/05/06 10:58:11;;;;;;;11.52;4.53;;;;;;;;;;5015974;28;20493;-63
2023/05/06 11:00:41;;;;;;;7.50;4.15;;;;;;;;;;5047874;28;20067;-62
2023/05/06 11:03:12;;;;;;;7.45;3.90;;;;;;;;;;5015765;28;20060;-62
2023/05/06 11:05:52;;;;;;;11.55;4.35;;;;;;;;;;4972277;28;20050;-63
2023/05/06 11:08:24;;;;;;;8.43;4.35;;;;;;;;;;4988842;28;20058;-62
2023/05/06 11:10:54;;;;;;;8.95;4.47;;;;;;;;;;4957174;28;20525;-62
2023/05/06 11:13:26;;;;;;;11.70;4.10;;;;;;;;;;4988878;28;20462;-64
2023/05/06 11:15:57;;;;;;;;;;;;;;;;;;4989130;28;20061;-63
2023/05/06 11:18:28;;;;;;;9.43;4.43;;;;;;;;;;4988277;28;19922;-63
2023/05/06 11:21:03;;;;;;;13.48;4.32;;;;;;;;;;4949828;29;20062;-62
2023/05/06 11:26:20;;;;;;;12.57;5.50;;;;;;;;;;4988714;28;20098;-63
2023/05/06 11:28:50;;;;;;;7.90;4.80;;;;;;;;;;4925493;28;20065;-64
2023/05/06 11:31:21;;;;;;;8.00;4.80;;;;;;;;;;4956066;28;20086;-63
2023/05/06 11:33:53;;;;;;;10.10;5.78;;;;;;;;;;4988354;28;20062;-63
2023/05/06 11:36:23;;;;;;;8.90;5.18;;;;;;;;;;4986161;28;20069;-63
2023/05/06 11:38:55;;;;;;;10.63;5.53;;;;;;;;;;5027494;28;20061;-62
2023/05/06 11:41:25;;;;;;;12.05;6.68;;;;;;;;;;5011949;28;20054;-63
2023/05/06 11:43:55;;;;;;;12.73;6.40;;;;;;;;;;5016182;28;20431;-63
2023/05/06 11:46:31;;;;;;;11.75;6.90;;;;;;;;;;5025697;28;20054;-64
2023/05/06 11:49:01;;;;;;;11.88;6.75;;;;;;;;;;4995624;28;20050;-63
2023/05/06 11:51:51;;;;;;;10.55;6.60;;;;;;;;;;4991951;28;20057;-63
2023/05/06 11:54:21;;;;;;;14.20;6.60;;;;;;;;;;4992094;28;20066;-63
2023/05/06 11:56:53;;;;;;;11.52;7.40;;;;;;;;;;4959851;28;20057;-63
2023/05/06 11:59:37;;;;;;;10.65;6.18;;;;;;;;;;4991788;28;20656;-63
2023/05/06 12:02:11;;;;;;;19.65;10.93;;;;;;;;;;4979641;28;20485;-63
2023/05/06 12:04:44;;;;;;;11.40;6.50;;;;;;;;;;4995692;28;20433;-63
2023/05/06 12:07:15;;;;;;;11.63;5.72;;;;;;;;;;4995233;28;20058;-64
2023/05/06 12:09:49;;;;;;;13.93;7.40;;;;;;;;;;4978867;28;20045;-63
2023/05/06 12:12:22;;;;;;;14.43;6.57;;;;;;;;;;4994994;28;20057;-63
2023/05/06 12:14:53;;;;;;;12.93;5.93;;;;;;;;;;5011334;28;20054;-63
2023/05/06 12:17:23;;;;;;;57.92;25.17;;;;;;;;;;5011067;28;20060;-65
2023/05/06 12:19:54;;;;;;;23.55;11.00;;;;;;;;;;4978962;28;20053;-64
2023/05/06 12:22:24;;;;;;;15.77;8.23;;;;;;;;;;5062297;28;20056;-64
2023/05/06 12:24:54;;;;;;;13.65;7.53;;;;;;;;;;5037142;28;20471;-63
2023/05/06 12:27:32;;;;;;;14.88;9.35;;;;;;;;;;5004113;28;20059;-64
2023/05/06 12:30:03;;;;;;;17.23;8.88;;;;;;;;;;5087246;28;20383;-65
2023/05/06 12:32:33;;;;;;;8.88;5.15;;;;;;;;;;5093723;28;20044;-64
2023/05/06 12:35:06;;;;;;;12.82;7.45;;;;;;;;;;5057568;28;20055;-63
2023/05/06 12:37:38;;;;;;;8.45;4.55;;;;;;;;;;5090857;28;20048;-63
2023/05/06 12:40:16;;;;;;;7.60;4.72;;;;;;;;;;5093598;28;20043;-64
2023/05/06 12:42:56;;;;;;;10.50;5.35;;;;;;;;;;5093639;28;20051;-64
2023/05/06 12:45:26;;;;;;;6.95;4.65;;;;;;;;;;5059579;28;20474;-64
2023/05/06 12:47:58;;;;;;;11.25;6.60;;;;;;;;;;5113682;28;20039;-63
2023/05/06 12:50:41;;;;;;;20.98;11.40;;;;;;;;;;5061501;28;20063;-64
2023/05/06 12:53:13;;;;;;;11.27;7.25;;;;;;;;;;5113539;28;20044;-64
2023/05/06 12:55:44;;;;;;;21.48;13.35;;;;;;;;;;5044788;28;20050;-63
2023/05/06 12:58:19;;;;;;;40.88;27.52;;;;;;;;;;5113620;28;20059;-64
2023/05/06 13:00:49;;;;;;;8.98;5.68;;;;;;;;;;5112529;28;20039;-63
2023/05/06 13:03:19;;;;;;;10.18;6.07;;;;;;;;;;5060199;28;20062;-63
2023/05/06 13:05:50;;;;;;;7.80;3.83;;;;;;;;;;5113375;28;20047;-63
2023/05/06 13:08:20;;;;;;;9.38;5.95;;;;;;;;;;5077683;28;20483;-65
2023/05/06 13:10:50;;;;;;;7.47;3.40;;;;;;;;;;5077139;28;20068;-63
2023/05/06 13:13:20;;;;;;;6.97;4.20;;;;;;;;;;5076782;28;20144;-63
2023/05/06 13:15:52;;;;;;;14.05;8.80;;;;;;;;;;5060627;28;20056;-63
2023/05/06 13:18:22;;;;;;;8.32;4.43;;;;;;;;;;5077203;28;20051;-63
2023/05/06 13:20:53;;;;;;;6.68;3.28;;;;;;;;;;5093687;28;20062;-64
2023/05/06 13:23:22;;;;;;;7.00;3.75;;;;;;;;;;5112813;28;20043;-64
2023/05/06 13:25:52;;;;;;;8.00;3.42;;;;;;;;;;5093653;28;20048;-64
2023/05/06 13:28:35;;;;;;;7.60;4.18;;;;;;;;;;5076962;28;20596;-64
2023/05/06 13:31:05;;;;;;;7.70;3.78;;;;;;;;;;5112509;28;20039;-65
2023/05/06 13:33:36;;;;;;;6.47;3.80;;;;;;;;;;5112698;28;20505;-63
2023/05/06 13:36:06;;;;;;;5.90;3.53;;;;;;;;;;5119296;27;20066;-63
2023/05/06 13:38:36;;;;;;;8.82;4.50;;;;;;;;;;5133550;27;20050;-63
2023/05/06 13:41:07;;;;;;;8.23;3.65;;;;;;;;;;5097424;27;20052;-63
2023/05/06 13:43:37;;;;;;;5.38;3.55;;;;;;;;;;5080470;27;20058;-63
2023/05/06 13:46:09;;;;;;;6.85;2.83;;;;;;;;;;5076668;28;20074;-63
2023/05/06 13:48:39;;;;;;;5.72;3.13;;;;;;;;;;5076568;28;20052;-63
2023/05/06 13:51:10;;;;;;;7.78;3.05;;;;;;;;;;5060213;28;20070;-62
2023/05/06 13:53:40;;;;;;;6.65;3.13;;;;;;;;;;5112655;28;20062;-62
2023/05/06 13:56:10;;;;;;;11.38;5.55;;;;;;;;;;5112433;28;20043;-62
2023/05/06 13:58:39;;;;;;;8.52;4.43;;;;;;;;;;5016257;28;20060;-62
2023/05/06 14:01:10;;;;;;;11.20;5.03;;;;;;;;;;5016129;28;20373;-63
2023/05/06 14:03:39;;;;;;;6.53;3.53;;;;;;;;;;5049143;28;20055;-63
2023/05/06 14:06:10;;;;;;;7.97;3.42;;;;;;;;;;5032381;28;20049;-63
2023/05/06 14:08:41;;;;;;;6.03;3.17;;;;;;;;;;5068016;28;20049;-62
2023/05/06 14:11:11;;;;;;;8.00;3.22;;;;;;;;;;5035411;28;20611;-61
2023/05/06 14:13:41;;;;;;;7.88;2.90;;;;;;;;;;5035061;28;20056;-63
2023/05/06 14:16:11;;;;;;;8.15;3.00;;;;;;;;;;5035683;28;20052;-62
2023/05/06 14:18:42;;;;;;;9.40;3.53;;;;;;;;;;5069115;28;20048;-63
2023/05/06 14:21:12;;;;;;;4.47;2.97;;;;;;;;;;5048745;28;20068;-62
2023/05/06 14:23:42;;;;;;;8.77;3.30;;;;;;;;;;5048641;28;20550;-63
2023/05/06 14:26:13;;;;;;;8.50;3.60;;;;;;;;;;5048785;28;20080;-63
2023/05/06 14:28:42;;;;;;;5.05;3.20;;;;;;;;;;5048762;28;20056;-63
2023/05/06 14:31:12;;;;;;;10.60;3.72;;;;;;;;;;5048689;28;20056;-63
2023/05/06 14:33:42;;;;;;;6.18;4.28;;;;;;;;;;5009178;28;20052;-62
2023/05/06 14:36:18;;;;;;;5.35;3.47;;;;;;;;;;4991731;28;20057;-62
2023/05/06 14:38:48;;;;;;;7.88;3.00;;;;;;;;;;5028736;28;20060;-63
2023/05/06 14:41:18;;;;;;;7.85;3.05;;;;;;;;;;5047867;28;20060;-63
2023/05/06 14:43:48;;;;;;;5.70;2.72;;;;;;;;;;5047892;28;20044;-62
2023/05/06 14:46:18;;;;;;;7.47;2.90;;;;;;;;;;5031100;28;20041;-62
2023/05/06 14:48:48;;;;;;;5.25;2.83;;;;;;;;;;5028252;28;20072;-62
2023/05/06 14:51:18;;;;;;;6.25;3.25;;;;;;;;;;4995409;28;20513;-62
2023/05/06 14:53:48;;;;;;;4.35;2.50;;;;;;;;;;4996048;28;20049;-64
2023/05/06 14:56:18;;;;;;;8.77;2.75;;;;;;;;;;4960016;28;20053;-64
2023/05/06 14:58:49;;;;;;;5.10;3.10;;;;;;;;;;4988546;28;20112;-62
2023/05/06 15:01:19;;;;;;;6.75;2.95;;;;;;;;;;5031732;28;20045;-62
2023/05/06 15:03:50;;;;;;;7.40;2.90;;;;;;;;;;5047906;28;20060;-63
2023/05/06 15:06:20;;;;;;;5.95;3.22;;;;;;;;;;5049455;28;20045;-62
2023/05/06 15:08:50;;;;;;;5.25;2.60;;;;;;;;;;5051299;28;20060;-62